EGYDEGVA

Guest
Details From EGYD - Cranwell
To EGVA - Fairford
Flight Number -
Tags Generated
Created
Modified
Stats Distance 94 nm / 174 km
Max Altitude 0 ft / 0 m
Waypoints 2
Social Downloads 0
Likes 0
Share VATSIM

Download

Looking for another format? Having issues loading an existing format? Contact us
Advertisement - Login to hide

Notes

Generated

Route

EGYD EGVA

ID Type Via Altitude Latitude Longitude Leg Dist Tot Dist Heading (true) Name
O EGYD APT - 0 ft / 0 m 53.02955˚ -0.49919˚ - 0 nm - -
O EGVA APT - 0 ft / 0 m 51.68300˚ -1.81200˚ 94 nm 94 nm 211° / 210° -

Altitude Profile

Advertisement - Login to hide

EGYD

Details ICAO EGYD
Name RAF Cranwell
Region United Kingdom
Timezone Europe/London (UTC+1.0)
Stats Elevation 218 ft / 66 m (AMSL)
Location 53.028754° -0.489538°
Runways 3
Magnetic Variation 0.683° W

METAR

EGYD 260950Z AUTO 02010KT 9999 // NCD 15/12 Q1022

Decode

TAF

Not found

Departure Runways

ID Width Length Bearing (true) Bearing (mag) Surface Threshold Offset Overrun Length
01 148 ft / 45 m 4,789 ft / 1,460 m 8.18° 8.86° Asphalt 0 ft / 0 m 85 ft / 26 m
09 148 ft / 45 m 5,972 ft / 1,820 m 82.69° 83.37° Asphalt 0 ft / 0 m 620 ft / 189 m
09R 131 ft / 40 m 2,489 ft / 759 m 82.94° 83.62° Grass 0 ft / 0 m 0 ft / 0 m
19 148 ft / 45 m 4,789 ft / 1,460 m 188.18° 188.86° Asphalt 0 ft / 0 m 85 ft / 26 m
27 148 ft / 45 m 5,972 ft / 1,820 m 262.71° 263.39° Asphalt 0 ft / 0 m 351 ft / 107 m
27L 131 ft / 40 m 2,489 ft / 759 m 262.95° 263.63° Grass 0 ft / 0 m 0 ft / 0 m

EGVA

Details ICAO EGVA (FFD)
Name RAF Fairford
Region United Kingdom
Timezone Europe/London (UTC+1.0)
Stats Elevation 286 ft / 87 m (AMSL)
Location 51.683500° -1.790000°
Runways 1
Magnetic Variation 0.988° W

METAR

EGVA 261032Z AUTO 04008KT 5000 BR SCT008 BKN060 16/15 A3011 RMK AO2 DZE00 SLP199 $

Decode

TAF

Not found

Destination Runways

ID Width Length Bearing (true) Bearing (mag) Surface Threshold Offset Overrun Length
09 200 ft / 61 m 9,962 ft / 3,036 m 87.88° 88.87° Asphalt 0 ft / 0 m 1,004 ft / 306 m
27 200 ft / 61 m 9,962 ft / 3,036 m 267.92° 268.91° Asphalt 0 ft / 0 m 965 ft / 294 m

Approach Navaids

Runway Type Ident Frequency Range Bearing (true) Bearing (mag) Slope Elevation
09 Localiser IFFD 111.10 MHz 18 nm / 33 km 87.95° 88.94° - 285 ft / 87 m (AMSL)
09 Glidescope IFFD 111.10 MHz 10 nm / 19 km 87.90° 88.89° 2.75° 256 ft / 78 m (AMSL)
27 Localiser IFFA 111.10 MHz 18 nm / 33 km 268.00° 268.99° - 254 ft / 77 m (AMSL)
27 Glidescope IFFA 111.10 MHz 10 nm / 19 km 267.90° 268.89° 2.85° 282 ft / 86 m (AMSL)

Popular Alternatives